createdAt,value
2022-12-01T04:10:35.453Z,100836.41
2022-12-01T04:13:37.966Z,100833.09
2022-12-01T04:16:40.090Z,100825.84
2022-12-01T04:19:42.423Z,100826.72
2022-12-01T04:22:44.780Z,100817.84
2022-12-01T04:25:47.139Z,100819.03
2022-12-01T04:28:49.229Z,100826.87
2022-12-01T04:31:51.625Z,100820.41
2022-12-01T04:34:53.736Z,100827.63
2022-12-01T04:37:56.111Z,100828.84
2022-12-01T04:40:58.513Z,100830.69
2022-12-01T04:44:00.839Z,100839.78
2022-12-01T04:47:04.596Z,100844.91
2022-12-01T04:50:07.358Z,100858.84
2022-12-01T04:53:09.429Z,100859.72
2022-12-01T04:56:11.803Z,100853.69
2022-12-01T04:59:13.942Z,100849.75
2022-12-01T05:02:17.418Z,100852.34
2022-12-01T05:05:20.171Z,100857.00
2022-12-01T05:08:22.570Z,100857.19
2022-12-01T05:11:25.916Z,100851.13
2022-12-01T05:14:28.285Z,100854.03
2022-12-01T05:17:36.804Z,100842.69
2022-12-01T05:20:57.753Z,100846.16
2022-12-01T05:23:59.812Z,100840.72
2022-12-01T05:27:02.148Z,100843.87
2022-12-01T05:30:05.021Z,100848.59
2022-12-01T05:33:07.437Z,100848.88
2022-12-01T05:36:09.639Z,100849.34
2022-12-01T05:39:12.024Z,100847.81
2022-12-01T05:42:14.128Z,100852.81
2022-12-01T05:45:16.516Z,100846.44
2022-12-01T05:48:18.649Z,100848.13
2022-12-01T05:51:21.090Z,100847.34
2022-12-01T05:54:23.303Z,100842.84
2022-12-01T05:57:26.001Z,100854.34
2022-12-01T06:00:28.286Z,100852.81
2022-12-01T06:03:30.706Z,100857.50
2022-12-01T06:06:32.799Z,100864.28
2022-12-01T06:09:35.112Z,100861.53
2022-12-01T06:12:38.027Z,100868.81
2022-12-01T06:15:40.442Z,100876.06
2022-12-01T06:18:42.504Z,100876.94
2022-12-01T06:21:44.823Z,100881.81
2022-12-01T06:24:46.885Z,100882.38
2022-12-01T06:27:49.216Z,100878.78
2022-12-01T06:30:51.355Z,100888.16
2022-12-01T06:33:53.723Z,100886.78
2022-12-01T06:36:55.805Z,100881.22
2022-12-01T06:39:58.179Z,100877.13
2022-12-01T06:43:02.613Z,100872.72
2022-12-01T06:46:06.058Z,100873.81
2022-12-01T06:49:12.102Z,100878.19
2022-12-01T06:52:14.720Z,100870.94
2022-12-01T06:55:16.824Z,100865.50
2022-12-01T06:58:19.228Z,100863.69
2022-12-01T07:01:22.156Z,100873.63
2022-12-01T07:04:24.597Z,100871.06
2022-12-01T07:07:26.886Z,100875.91
2022-12-01T07:10:29.415Z,100874.25
2022-12-01T07:13:33.968Z,100877.56
2022-12-01T07:16:36.616Z,100874.84
2022-12-01T07:19:41.573Z,100878.31
2022-12-01T07:22:45.166Z,100880.09
2022-12-01T07:25:47.253Z,100882.66
2022-12-01T07:28:49.610Z,100878.19
2022-12-01T07:31:51.689Z,100882.81
2022-12-01T07:34:54.041Z,100883.72
2022-12-01T07:37:56.756Z,100881.31
2022-12-01T07:41:14.259Z,100883.94
2022-12-01T07:44:16.275Z,100885.44
2022-12-01T07:47:18.718Z,100890.72
2022-12-01T07:50:21.147Z,100882.94
2022-12-01T07:53:24.014Z,100883.59
2022-12-01T07:56:26.110Z,100881.56
2022-12-01T07:59:28.485Z,100880.25
2022-12-01T08:02:30.648Z,100880.09
2022-12-01T08:05:33.241Z,100876.81
2022-12-01T08:08:37.675Z,100880.78
2022-12-01T08:11:40.115Z,100877.41
2022-12-01T08:14:42.650Z,100872.25
2022-12-01T08:17:44.951Z,100869.97
2022-12-01T08:20:47.175Z,100871.53
2022-12-01T08:23:56.547Z,100873.12
2022-12-01T08:26:58.670Z,100864.06
2022-12-01T08:30:01.840Z,100864.37
2022-12-01T08:33:04.231Z,100864.03
2022-12-01T08:36:08.136Z,100871.19
2022-12-01T08:39:10.812Z,100875.31
2022-12-01T08:42:13.444Z,100871.53
2022-12-01T08:45:15.557Z,100883.16
2022-12-01T08:48:17.985Z,100877.72
2022-12-01T08:51:20.119Z,100887.91
2022-12-01T08:54:22.844Z,100887.16
2022-12-01T08:57:25.136Z,100877.63
2022-12-01T09:00:27.653Z,100885.00
2022-12-01T09:03:31.088Z,100881.19
2022-12-01T09:06:39.493Z,100878.47
2022-12-01T09:09:42.085Z,100874.22
2022-12-01T09:12:44.473Z,100874.69
2022-12-01T09:15:55.264Z,100868.81
2022-12-01T09:18:57.636Z,100860.97
2022-12-01T09:21:59.876Z,100851.53
2022-12-01T09:25:02.280Z,100852.88
2022-12-01T09:28:04.635Z,100851.06
2022-12-01T09:31:10.415Z,100855.38
2022-12-01T09:34:18.656Z,100858.72
2022-12-01T09:37:21.020Z,100857.25
2022-12-01T09:40:30.248Z,100850.16
2022-12-01T09:43:41.548Z,100840.28
2022-12-01T09:46:49.363Z,100843.53
2022-12-01T09:49:57.916Z,100842.91
2022-12-01T09:53:02.157Z,100849.34
2022-12-01T09:56:11.551Z,100851.94
2022-12-01T09:59:23.607Z,100843.75
2022-12-01T10:02:33.681Z,100845.41
2022-12-01T10:06:25.000Z,100838.13
2022-12-01T10:09:16.491Z,100831.03
2022-12-01T10:12:23.663Z,100835.44
2022-12-01T10:15:49.101Z,100835.16
2022-12-01T10:19:08.700Z,100824.50
2022-12-01T10:22:16.659Z,100830.34
2022-12-01T10:25:25.545Z,100830.22
2022-12-01T10:28:36.133Z,100820.44
2022-12-01T10:31:53.391Z,100820.66
2022-12-01T10:34:55.460Z,100812.75
2022-12-01T10:38:01.528Z,100814.00
2022-12-01T10:41:06.833Z,100800.44
2022-12-01T10:44:09.533Z,100807.22
2022-12-01T10:47:25.537Z,100803.31
2022-12-01T10:50:28.333Z,100792.47
2022-12-01T10:53:33.670Z,100792.34
2022-12-01T10:56:40.524Z,100790.41
2022-12-01T10:59:51.324Z,100781.56
2022-12-01T11:02:54.799Z,100782.09
2022-12-01T11:05:59.143Z,100788.59
2022-12-01T11:09:24.377Z,100769.31
2022-12-01T11:12:28.671Z,100776.13
2022-12-01T11:15:40.032Z,100772.41
2022-12-01T11:18:42.170Z,100770.59
2022-12-01T11:21:53.383Z,100774.00
2022-12-01T11:24:56.083Z,100770.03
2022-12-01T11:28:01.806Z,100759.63
2022-12-01T11:31:07.565Z,100740.72
2022-12-01T11:34:22.189Z,100748.63
2022-12-01T11:37:32.755Z,100740.84
2022-12-01T11:40:48.428Z,100739.13
2022-12-01T11:44:00.747Z,100732.56
2022-12-01T11:47:24.421Z,100728.91
2022-12-01T11:50:31.248Z,100731.69
2022-12-01T11:53:39.309Z,100734.12
2022-12-01T11:56:43.137Z,100733.03
2022-12-01T11:59:45.597Z,100744.03
2022-12-01T12:03:19.172Z,100751.53
2022-12-01T12:06:40.898Z,100754.03
2022-12-01T12:09:56.205Z,100756.28
2022-12-01T12:13:16.987Z,100760.31
2022-12-01T12:16:53.293Z,100764.31
2022-12-01T12:20:29.897Z,100764.72
2022-12-01T12:23:51.936Z,100751.28
2022-12-01T12:27:09.932Z,100750.91
2022-12-01T12:30:23.840Z,100753.88
2022-12-01T12:34:02.793Z,100748.59
2022-12-01T12:37:20.204Z,100751.34
2022-12-01T12:40:53.529Z,100749.78
2022-12-01T12:44:16.805Z,100759.94
2022-12-01T12:47:48.224Z,100754.72
2022-12-01T12:51:05.287Z,100760.50
2022-12-01T12:54:20.871Z,100755.22
2022-12-01T12:57:32.555Z,100751.47
2022-12-01T13:00:36.649Z,100747.72
2022-12-01T13:04:00.665Z,100753.44
2022-12-01T13:07:17.651Z,100754.81
2022-12-01T13:10:29.153Z,100747.41
2022-12-01T13:13:54.109Z,100746.19
2022-12-01T13:17:02.843Z,100737.00
2022-12-01T13:20:06.582Z,100741.50
2022-12-01T13:23:16.615Z,100744.69
2022-12-01T13:26:21.235Z,100743.03
2022-12-01T13:29:25.458Z,100752.06
2022-12-01T13:32:40.213Z,100746.31
2022-12-01T13:35:42.269Z,100743.72
2022-12-01T13:39:02.557Z,100748.22
2022-12-01T13:42:19.143Z,100745.97
2022-12-01T13:45:23.055Z,100756.31
2022-12-01T13:48:49.938Z,100750.78
2022-12-01T13:52:23.260Z,100758.13
2022-12-01T13:55:28.714Z,100753.03
2022-12-01T13:58:34.056Z,100737.59
2022-12-01T14:01:44.518Z,100739.53
2022-12-01T14:04:47.932Z,100745.16
2022-12-01T14:07:52.118Z,100747.16
2022-12-01T14:11:01.704Z,100745.44
2022-12-01T14:14:26.232Z,100748.81
2022-12-01T14:17:32.525Z,100742.94
2022-12-01T14:20:43.442Z,100740.44
2022-12-01T14:23:57.038Z,100744.78
2022-12-01T14:26:59.472Z,100739.69
2022-12-01T14:30:43.009Z,100739.19
2022-12-01T14:33:54.328Z,100737.50
2022-12-01T14:37:16.717Z,100745.50
2022-12-01T14:40:24.137Z,100750.06
2022-12-01T14:43:47.177Z,100746.00
2022-12-01T14:46:59.552Z,100742.81
2022-12-01T14:50:12.205Z,100739.34
2022-12-01T14:53:21.537Z,100741.31
2022-12-01T14:56:25.615Z,100749.37
2022-12-01T14:59:27.744Z,100752.13
2022-12-01T15:02:30.599Z,100756.00
2022-12-01T15:05:39.117Z,100750.09
2022-12-01T15:08:49.259Z,100749.09
2022-12-01T15:12:01.585Z,100756.03
2022-12-01T15:15:22.406Z,100760.06
2022-12-01T15:18:36.838Z,100755.53
2022-12-01T15:21:39.186Z,100754.34
2022-12-01T15:24:42.041Z,100753.22
2022-12-01T15:27:44.662Z,100751.91
2022-12-01T15:30:52.972Z,100759.53
2022-12-01T15:33:56.239Z,100761.00
2022-12-01T15:37:00.383Z,100758.69
2022-12-01T15:43:38.128Z,100755.19
2022-12-01T15:46:40.700Z,100751.06
2022-12-01T15:49:48.880Z,100749.00
2022-12-01T15:52:51.211Z,100754.31
2022-12-01T15:55:59.051Z,100750.28
2022-12-01T15:59:31.139Z,100750.44
2022-12-01T16:02:33.556Z,100758.84
2022-12-01T16:05:36.365Z,100757.81
2022-12-01T16:08:38.844Z,100764.12
2022-12-01T16:12:16.231Z,100759.22
2022-12-01T16:15:22.285Z,100759.22
2022-12-01T16:18:33.645Z,100757.19
2022-12-01T16:21:55.255Z,100761.56
